sensor_id;sensor_type;location;lat;lon;timestamp;pressure;altitude;pressure_sealevel;temperature;humidity
77897;BME280;67092;64.282;21.056;2023-05-14T00:00:40;102220.14;;;22.39;26.16
77897;BME280;67092;64.282;21.056;2023-05-14T00:03:06;102220.40;;;22.40;25.93
77897;BME280;67092;64.282;21.056;2023-05-14T00:05:31;102221.69;;;22.64;25.90
77897;BME280;67092;64.282;21.056;2023-05-14T00:07:57;102220.64;;;22.34;26.19
77897;BME280;67092;64.282;21.056;2023-05-14T00:10:23;102220.13;;;22.39;26.21
77897;BME280;67092;64.282;21.056;2023-05-14T00:12:50;102217.89;;;22.11;26.22
77897;BME280;67092;64.282;21.056;2023-05-14T00:15:14;102216.60;;;22.37;25.94
77897;BME280;67092;64.282;21.056;2023-05-14T00:17:39;102217.63;;;22.41;25.90
77897;BME280;67092;64.282;21.056;2023-05-14T00:20:06;102216.99;;;22.25;26.04
77897;BME280;67092;64.282;21.056;2023-05-14T00:22:31;102215.07;;;22.55;25.96
77897;BME280;67092;64.282;21.056;2023-05-14T00:24:56;102214.51;;;22.33;25.97
77897;BME280;67092;64.282;21.056;2023-05-14T00:27:22;102212.00;;;22.30;25.99
77897;BME280;67092;64.282;21.056;2023-05-14T00:29:48;102211.61;;;22.16;26.35
77897;BME280;67092;64.282;21.056;2023-05-14T00:32:13;102208.19;;;22.65;25.91
77897;BME280;67092;64.282;21.056;2023-05-14T00:34:39;102204.58;;;22.34;26.19
77897;BME280;67092;64.282;21.056;2023-05-14T00:37:05;102202.90;;;22.30;26.00
77897;BME280;67092;64.282;21.056;2023-05-14T00:39:30;102202.12;;;22.77;25.56
77897;BME280;67092;64.282;21.056;2023-05-14T00:41:56;102207.81;;;22.64;25.87
77897;BME280;67092;64.282;21.056;2023-05-14T00:44:21;102208.72;;;22.54;25.74
77897;BME280;67092;64.282;21.056;2023-05-14T00:46:47;102208.49;;;22.42;25.96
77897;BME280;67092;64.282;21.056;2023-05-14T00:49:13;102205.79;;;22.56;25.71
77897;BME280;67092;64.282;21.056;2023-05-14T00:51:39;102207.24;;;22.40;25.88
77897;BME280;67092;64.282;21.056;2023-05-14T00:54:04;102206.37;;;22.15;25.94
77897;BME280;67092;64.282;21.056;2023-05-14T00:56:30;102202.69;;;22.39;25.96
77897;BME280;67092;64.282;21.056;2023-05-14T00:58:55;102203.16;;;22.47;26.08
77897;BME280;67092;64.282;21.056;2023-05-14T01:01:21;102201.84;;;22.38;26.16
77897;BME280;67092;64.282;21.056;2023-05-14T01:03:46;102198.47;;;22.84;25.75
77897;BME280;67092;64.282;21.056;2023-05-14T01:06:25;102199.71;;;22.08;25.99
77897;BME280;67092;64.282;21.056;2023-05-14T01:08:55;102198.15;;;22.78;25.83
77897;BME280;67092;64.282;21.056;2023-05-14T01:11:06;102200.88;;;22.74;25.82
77897;BME280;67092;64.282;21.056;2023-05-14T01:13:36;102197.28;;;22.44;26.09
77897;BME280;67092;64.282;21.056;2023-05-14T01:15:55;102198.24;;;22.33;26.22
77897;BME280;67092;64.282;21.056;2023-05-14T01:18:20;102202.82;;;22.27;26.04
77897;BME280;67092;64.282;21.056;2023-05-14T01:20:45;102199.35;;;22.54;25.98
77897;BME280;67092;64.282;21.056;2023-05-14T01:23:11;102196.59;;;22.53;26.00
77897;BME280;67092;64.282;21.056;2023-05-14T01:25:36;102192.85;;;22.04;26.48
77897;BME280;67092;64.282;21.056;2023-05-14T01:28:08;102191.60;;;22.35;26.21
77897;BME280;67092;64.282;21.056;2023-05-14T01:30:31;102191.49;;;22.17;26.35
77897;BME280;67092;64.282;21.056;2023-05-14T01:32:57;102196.90;;;22.66;25.86
77897;BME280;67092;64.282;21.056;2023-05-14T01:35:21;102197.99;;;22.03;26.44
77897;BME280;67092;64.282;21.056;2023-05-14T01:37:45;102197.40;;;22.21;26.23
77897;BME280;67092;64.282;21.056;2023-05-14T01:40:10;102196.63;;;22.22;26.23
77897;BME280;67092;64.282;21.056;2023-05-14T01:42:36;102197.46;;;22.17;26.26
77897;BME280;67092;64.282;21.056;2023-05-14T01:45:02;102196.82;;;22.20;26.29
77897;BME280;67092;64.282;21.056;2023-05-14T01:47:27;102199.12;;;21.99;26.50
77897;BME280;67092;64.282;21.056;2023-05-14T01:49:52;102193.81;;;22.16;26.29
77897;BME280;67092;64.282;21.056;2023-05-14T01:52:18;102192.88;;;22.33;26.09
77897;BME280;67092;64.282;21.056;2023-05-14T01:54:44;102194.49;;;21.93;26.49
77897;BME280;67092;64.282;21.056;2023-05-14T01:57:09;102194.21;;;22.62;25.88
77897;BME280;67092;64.282;21.056;2023-05-14T01:59:35;102194.01;;;21.84;26.34
77897;BME280;67092;64.282;21.056;2023-05-14T02:02:01;102196.68;;;21.82;26.60
77897;BME280;67092;64.282;21.056;2023-05-14T02:04:26;102197.35;;;22.42;26.03
77897;BME280;67092;64.282;21.056;2023-05-14T02:06:52;102199.23;;;22.20;26.24
77897;BME280;67092;64.282;21.056;2023-05-14T02:09:17;102204.10;;;22.49;26.07
77897;BME280;67092;64.282;21.056;2023-05-14T02:11:43;102202.64;;;22.18;26.35
77897;BME280;67092;64.282;21.056;2023-05-14T02:14:09;102205.49;;;22.49;25.99
77897;BME280;67092;64.282;21.056;2023-05-14T02:16:35;102205.06;;;22.16;26.35
77897;BME280;67092;64.282;21.056;2023-05-14T02:19:00;102204.26;;;22.07;26.44
77897;BME280;67092;64.282;21.056;2023-05-14T02:21:26;102207.07;;;21.76;26.71
77897;BME280;67092;64.282;21.056;2023-05-14T02:23:51;102202.39;;;21.96;26.58
77897;BME280;67092;64.282;21.056;2023-05-14T02:26:17;102201.26;;;21.53;26.78
77897;BME280;67092;64.282;21.056;2023-05-14T02:28:42;102203.10;;;21.84;26.68
77897;BME280;67092;64.282;21.056;2023-05-14T02:31:08;102203.85;;;22.19;26.30
77897;BME280;67092;64.282;21.056;2023-05-14T02:33:34;102210.70;;;21.82;26.68
77897;BME280;67092;64.282;21.056;2023-05-14T02:35:59;102212.52;;;21.88;26.38
77897;BME280;67092;64.282;21.056;2023-05-14T02:38:25;102210.38;;;21.74;26.78
77897;BME280;67092;64.282;21.056;2023-05-14T02:40:50;102213.15;;;21.31;27.20
77897;BME280;67092;64.282;21.056;2023-05-14T02:43:16;102209.32;;;21.73;26.78
77897;BME280;67092;64.282;21.056;2023-05-14T02:45:42;102208.56;;;21.78;26.73
77897;BME280;67092;64.282;21.056;2023-05-14T02:48:07;102209.38;;;21.49;26.93
77897;BME280;67092;64.282;21.056;2023-05-14T02:50:33;102208.72;;;21.78;26.69
77897;BME280;67092;64.282;21.056;2023-05-14T02:52:59;102204.07;;;21.72;26.73
77897;BME280;67092;64.282;21.056;2023-05-14T02:55:24;102202.03;;;22.07;26.61
77897;BME280;67092;64.282;21.056;2023-05-14T02:57:50;102199.52;;;21.85;26.54
77897;BME280;67092;64.282;21.056;2023-05-14T03:00:16;102200.19;;;21.66;26.50
77897;BME280;67092;64.282;21.056;2023-05-14T03:02:41;102204.57;;;22.09;26.37
77897;BME280;67092;64.282;21.056;2023-05-14T03:05:07;102201.34;;;22.09;26.36
77897;BME280;67092;64.282;21.056;2023-05-14T03:07:32;102198.35;;;22.13;26.25
77897;BME280;67092;64.282;21.056;2023-05-14T03:09:58;102194.68;;;21.90;26.48
77897;BME280;67092;64.282;21.056;2023-05-14T03:12:23;102197.14;;;21.90;26.45
77897;BME280;67092;64.282;21.056;2023-05-14T03:14:49;102193.23;;;21.68;26.70
77897;BME280;67092;64.282;21.056;2023-05-14T03:17:15;102187.58;;;21.88;26.49
77897;BME280;67092;64.282;21.056;2023-05-14T03:19:40;102191.03;;;22.38;26.28
77897;BME280;67092;64.282;21.056;2023-05-14T03:22:06;102186.50;;;22.19;26.40
77897;BME280;67092;64.282;21.056;2023-05-14T03:24:31;102185.39;;;22.45;25.95
77897;BME280;67092;64.282;21.056;2023-05-14T03:26:57;102186.95;;;22.16;26.16
77897;BME280;67092;64.282;21.056;2023-05-14T03:29:23;102193.24;;;22.40;25.92
77897;BME280;67092;64.282;21.056;2023-05-14T03:31:48;102187.44;;;22.10;26.27
77897;BME280;67092;64.282;21.056;2023-05-14T03:34:14;102182.12;;;21.83;26.51
77897;BME280;67092;64.282;21.056;2023-05-14T03:36:40;102186.14;;;22.16;26.22
77897;BME280;67092;64.282;21.056;2023-05-14T03:39:05;102187.39;;;22.19;26.16
77897;BME280;67092;64.282;21.056;2023-05-14T03:41:31;102184.90;;;22.03;26.33
77897;BME280;67092;64.282;21.056;2023-05-14T03:43:56;102181.38;;;21.99;26.34
77897;BME280;67092;64.282;21.056;2023-05-14T03:46:22;102181.37;;;22.24;26.13
77897;BME280;67092;64.282;21.056;2023-05-14T03:48:47;102183.83;;;22.16;26.20
77897;BME280;67092;64.282;21.056;2023-05-14T03:51:13;102187.82;;;22.06;26.28
77897;BME280;67092;64.282;21.056;2023-05-14T03:53:39;102186.54;;;22.33;26.09
77897;BME280;67092;64.282;21.056;2023-05-14T03:56:05;102182.19;;;22.52;25.87
77897;BME280;67092;64.282;21.056;2023-05-14T03:58:30;102179.47;;;22.05;26.31
77897;BME280;67092;64.282;21.056;2023-05-14T04:00:56;102180.26;;;21.85;26.73
77897;BME280;67092;64.282;21.056;2023-05-14T04:03:21;102175.75;;;22.55;26.10
77897;BME280;67092;64.282;21.056;2023-05-14T04:05:47;102180.45;;;22.65;26.16
77897;BME280;67092;64.282;21.056;2023-05-14T04:08:12;102183.36;;;21.64;26.77
77897;BME280;67092;64.282;21.056;2023-05-14T04:10:38;102171.33;;;22.12;26.50
77897;BME280;67092;64.282;21.056;2023-05-14T04:13:04;102163.70;;;21.97;26.42
77897;BME280;67092;64.282;21.056;2023-05-14T04:15:29;102163.51;;;21.85;26.51
77897;BME280;67092;64.282;21.056;2023-05-14T04:17:55;102165.73;;;22.00;26.37
77897;BME280;67092;64.282;21.056;2023-05-14T04:20:20;102165.77;;;21.96;26.41
77897;BME280;67092;64.282;21.056;2023-05-14T04:22:46;102164.71;;;22.18;26.21
77897;BME280;67092;64.282;21.056;2023-05-14T04:25:12;102169.69;;;21.33;26.82
77897;BME280;67092;64.282;21.056;2023-05-14T04:27:37;102165.21;;;21.79;26.61
77897;BME280;67092;64.282;21.056;2023-05-14T04:30:04;102164.92;;;21.72;26.66
77897;BME280;67092;64.282;21.056;2023-05-14T04:32:28;102165.88;;;22.17;26.25
77897;BME280;67092;64.282;21.056;2023-05-14T04:34:54;102167.44;;;22.27;26.07
77897;BME280;67092;64.282;21.056;2023-05-14T04:37:20;102164.88;;;21.88;26.50
77897;BME280;67092;64.282;21.056;2023-05-14T04:39:45;102165.56;;;21.96;26.38
77897;BME280;67092;64.282;21.056;2023-05-14T04:42:11;102164.71;;;21.76;26.62
77897;BME280;67092;64.282;21.056;2023-05-14T04:44:36;102166.65;;;21.65;26.70
77897;BME280;67092;64.282;21.056;2023-05-14T04:47:02;102165.84;;;21.85;26.53
77897;BME280;67092;64.282;21.056;2023-05-14T04:49:28;102164.03;;;22.02;26.36
77897;BME280;67092;64.282;21.056;2023-05-14T04:51:53;102171.51;;;21.88;26.79
77897;BME280;67092;64.282;21.056;2023-05-14T04:54:19;102166.15;;;21.33;26.81
77897;BME280;67092;64.282;21.056;2023-05-14T04:56:44;102166.28;;;21.65;26.71
77897;BME280;67092;64.282;21.056;2023-05-14T04:59:10;102168.00;;;22.28;26.31
77897;BME280;67092;64.282;21.056;2023-05-14T05:01:36;102166.87;;;22.08;26.28
77897;BME280;67092;64.282;21.056;2023-05-14T05:04:01;102160.52;;;21.82;26.52
77897;BME280;67092;64.282;21.056;2023-05-14T05:06:27;102158.84;;;21.85;26.49
77897;BME280;67092;64.282;21.056;2023-05-14T05:08:53;102155.02;;;21.70;26.61
77897;BME280;67092;64.282;21.056;2023-05-14T05:11:18;102151.46;;;21.44;26.87
77897;BME280;67092;64.282;21.056;2023-05-14T05:13:44;102148.23;;;22.05;26.55
77897;BME280;67092;64.282;21.056;2023-05-14T05:16:09;102144.07;;;22.06;26.24
77897;BME280;67092;64.282;21.056;2023-05-14T05:18:35;102143.64;;;21.62;26.70
77897;BME280;67092;64.282;21.056;2023-05-14T05:21:00;102147.88;;;21.94;26.34
77897;BME280;67092;64.282;21.056;2023-05-14T05:23:26;102150.47;;;22.20;26.32
77897;BME280;67092;64.282;21.056;2023-05-14T05:25:52;102149.85;;;21.81;26.52
77897;BME280;67092;64.282;21.056;2023-05-14T05:28:17;102142.76;;;21.93;26.38
77897;BME280;67092;64.282;21.056;2023-05-14T05:30:43;102141.39;;;21.81;26.51
77897;BME280;67092;64.282;21.056;2023-05-14T05:33:09;102141.71;;;21.87;26.45
77897;BME280;67092;64.282;21.056;2023-05-14T05:35:35;102140.78;;;21.86;26.44
77897;BME280;67092;64.282;21.056;2023-05-14T05:38:00;102139.10;;;21.97;26.34
77897;BME280;67092;64.282;21.056;2023-05-14T05:40:26;102136.99;;;21.95;26.38
77897;BME280;67092;64.282;21.056;2023-05-14T05:42:51;102135.89;;;22.08;26.21
77897;BME280;67092;64.282;21.056;2023-05-14T05:45:17;102138.70;;;22.04;26.28
77897;BME280;67092;64.282;21.056;2023-05-14T05:47:42;102135.48;;;21.83;26.48
77897;BME280;67092;64.282;21.056;2023-05-14T05:50:09;102137.17;;;22.22;26.12
77897;BME280;67092;64.282;21.056;2023-05-14T05:52:34;102133.80;;;21.90;26.48
77897;BME280;67092;64.282;21.056;2023-05-14T05:54:59;102133.28;;;21.93;26.44
77897;BME280;67092;64.282;21.056;2023-05-14T05:57:25;102130.77;;;21.89;26.50
77897;BME280;67092;64.282;21.056;2023-05-14T05:59:50;102128.99;;;21.79;26.66
77897;BME280;67092;64.282;21.056;2023-05-14T06:02:16;102124.44;;;22.01;26.64
77897;BME280;67092;64.282;21.056;2023-05-14T06:04:41;102123.56;;;21.82;26.67
77897;BME280;67092;64.282;21.056;2023-05-14T06:07:07;102124.53;;;22.13;26.35
77897;BME280;67092;64.282;21.056;2023-05-14T06:09:33;102123.63;;;21.93;26.61
77897;BME280;67092;64.282;21.056;2023-05-14T06:11:58;102120.53;;;21.87;26.64
77897;BME280;67092;64.282;21.056;2023-05-14T06:14:24;102121.98;;;22.06;26.48
77897;BME280;67092;64.282;21.056;2023-05-14T06:16:49;102114.99;;;22.32;26.45
77897;BME280;67092;64.282;21.056;2023-05-14T06:19:15;102113.75;;;22.37;26.44
77897;BME280;67092;64.282;21.056;2023-05-14T06:21:41;102112.90;;;22.51;26.26
77897;BME280;67092;64.282;21.056;2023-05-14T06:24:07;102111.40;;;22.04;26.50
77897;BME280;67092;64.282;21.056;2023-05-14T06:26:32;102108.40;;;22.24;26.36
77897;BME280;67092;64.282;21.056;2023-05-14T06:28:58;102109.92;;;22.34;26.25
77897;BME280;67092;64.282;21.056;2023-05-14T06:31:23;102110.94;;;21.56;27.06
77897;BME280;67092;64.282;21.056;2023-05-14T06:33:49;102110.42;;;21.87;26.76
77897;BME280;67092;64.282;21.056;2023-05-14T06:36:14;102106.14;;;22.33;26.52
77897;BME280;67092;64.282;21.056;2023-05-14T06:38:40;102104.61;;;22.37;26.26
77897;BME280;67092;64.282;21.056;2023-05-14T06:41:06;102107.03;;;21.96;26.41
77897;BME280;67092;64.282;21.056;2023-05-14T06:43:31;102109.58;;;22.18;26.45
77897;BME280;67092;64.282;21.056;2023-05-14T06:45:57;102111.01;;;21.87;26.76
77897;BME280;67092;64.282;21.056;2023-05-14T06:48:22;102107.05;;;22.11;26.54
77897;BME280;67092;64.282;21.056;2023-05-14T06:50:48;102107.09;;;22.10;26.57
77897;BME280;67092;64.282;21.056;2023-05-14T06:53:14;102104.92;;;22.14;26.53
77897;BME280;67092;64.282;21.056;2023-05-14T06:55:39;102108.15;;;21.85;26.82
77897;BME280;67092;64.282;21.056;2023-05-14T06:58:05;102103.46;;;22.23;26.51
77897;BME280;67092;64.282;21.056;2023-05-14T07:00:31;102104.94;;;22.26;26.51
77897;BME280;67092;64.282;21.056;2023-05-14T07:02:56;102102.26;;;22.11;26.63
77897;BME280;67092;64.282;21.056;2023-05-14T07:05:23;102100.37;;;22.04;26.48
77897;BME280;67092;64.282;21.056;2023-05-14T07:07:47;102102.91;;;22.62;26.15
77897;BME280;67092;64.282;21.056;2023-05-14T07:10:13;102102.15;;;22.23;26.77
77897;BME280;67092;64.282;21.056;2023-05-14T07:12:39;102099.93;;;22.03;26.70
77897;BME280;67092;64.282;21.056;2023-05-14T07:15:06;102101.60;;;21.78;27.04
77897;BME280;67092;64.282;21.056;2023-05-14T07:17:30;102097.65;;;22.29;26.55
77897;BME280;67092;64.282;21.056;2023-05-14T07:19:56;102099.72;;;21.90;26.91
77897;BME280;67092;64.282;21.056;2023-05-14T07:22:21;102097.55;;;21.68;26.89
77897;BME280;67092;64.282;21.056;2023-05-14T07:24:47;102098.44;;;21.71;27.15
77897;BME280;67092;64.282;21.056;2023-05-14T07:27:12;102094.45;;;21.90;27.00
77897;BME280;67092;64.282;21.056;2023-05-14T07:29:38;102094.07;;;21.91;26.98
77897;BME280;67092;64.282;21.056;2023-05-14T07:32:04;102093.57;;;21.69;27.21
77897;BME280;67092;64.282;21.056;2023-05-14T07:34:29;102092.42;;;21.87;27.00
77897;BME280;67092;64.282;21.056;2023-05-14T07:36:55;102090.46;;;22.18;26.66
77897;BME280;67092;64.282;21.056;2023-05-14T07:39:21;102087.75;;;22.09;26.88
77897;BME280;67092;64.282;21.056;2023-05-14T07:41:46;102088.01;;;22.52;26.52
77897;BME280;67092;64.282;21.056;2023-05-14T07:44:12;102081.21;;;21.92;27.14
77897;BME280;67092;64.282;21.056;2023-05-14T07:46:37;102080.37;;;22.27;26.81
77897;BME280;67092;64.282;21.056;2023-05-14T07:49:03;102080.26;;;22.00;27.05
77897;BME280;67092;64.282;21.056;2023-05-14T07:51:29;102078.43;;;22.09;26.92
77897;BME280;67092;64.282;21.056;2023-05-14T07:53:54;102077.23;;;21.88;27.20
77897;BME280;67092;64.282;21.056;2023-05-14T07:56:20;102079.24;;;21.79;27.29
77897;BME280;67092;64.282;21.056;2023-05-14T07:58:45;102077.73;;;21.84;27.19
77897;BME280;67092;64.282;21.056;2023-05-14T08:01:11;102074.56;;;21.96;27.04
77897;BME280;67092;64.282;21.056;2023-05-14T08:03:37;102077.07;;;22.45;26.52
77897;BME280;67092;64.282;21.056;2023-05-14T08:06:03;102075.99;;;22.25;26.74
77897;BME280;67092;64.282;21.056;2023-05-14T08:08:28;102077.73;;;21.92;27.05
77897;BME280;67092;64.282;21.056;2023-05-14T08:10:54;102077.51;;;22.26;26.65
77897;BME280;67092;64.282;21.056;2023-05-14T08:13:19;102074.34;;;22.62;26.26
77897;BME280;67092;64.282;21.056;2023-05-14T08:15:45;102074.01;;;22.47;26.42
77897;BME280;67092;64.282;21.056;2023-05-14T08:18:10;102076.18;;;22.11;26.57
77897;BME280;67092;64.282;21.056;2023-05-14T08:20:36;102073.36;;;22.19;26.68
77897;BME280;67092;64.282;21.056;2023-05-14T08:23:02;102068.60;;;22.03;26.60
77897;BME280;67092;64.282;21.056;2023-05-14T08:25:27;102070.89;;;22.22;26.67
77897;BME280;67092;64.282;21.056;2023-05-14T08:27:53;102067.46;;;22.07;26.79
77897;BME280;67092;64.282;21.056;2023-05-14T08:30:19;102066.43;;;21.97;26.92
77897;BME280;67092;64.282;21.056;2023-05-14T08:32:44;102064.91;;;22.21;26.68
77897;BME280;67092;64.282;21.056;2023-05-14T08:35:10;102062.43;;;22.41;26.51
77897;BME280;67092;64.282;21.056;2023-05-14T08:37:36;102060.82;;;22.49;26.44
77897;BME280;67092;64.282;21.056;2023-05-14T08:40:02;102062.42;;;22.24;26.65
77897;BME280;67092;64.282;21.056;2023-05-14T08:42:27;102060.35;;;22.81;26.11
77897;BME280;67092;64.282;21.056;2023-05-14T08:44:56;102060.30;;;22.78;26.11
77897;BME280;67092;64.282;21.056;2023-05-14T08:47:21;102058.43;;;22.58;26.29
77897;BME280;67092;64.282;21.056;2023-05-14T08:49:46;102058.69;;;22.94;25.91
77897;BME280;67092;64.282;21.056;2023-05-14T08:52:09;102058.76;;;22.17;26.41
77897;BME280;67092;64.282;21.056;2023-05-14T08:54:35;102057.31;;;22.66;25.97
77897;BME280;67092;64.282;21.056;2023-05-14T08:57:02;102057.91;;;22.44;26.32
77897;BME280;67092;64.282;21.056;2023-05-14T08:59:26;102053.67;;;22.57;26.00
77897;BME280;67092;64.282;21.056;2023-05-14T09:01:53;102056.23;;;22.66;26.16
77897;BME280;67092;64.282;21.056;2023-05-14T09:04:20;102053.27;;;23.04;25.82
77897;BME280;67092;64.282;21.056;2023-05-14T09:06:43;102050.66;;;22.50;26.06
77897;BME280;67092;64.282;21.056;2023-05-14T09:09:08;102054.03;;;22.28;26.25
77897;BME280;67092;64.282;21.056;2023-05-14T09:11:40;102053.83;;;22.45;26.30
77897;BME280;67092;64.282;21.056;2023-05-14T09:14:00;102047.78;;;22.07;26.49
77897;BME280;67092;64.282;21.056;2023-05-14T09:16:26;102046.28;;;22.37;26.40
77897;BME280;67092;64.282;21.056;2023-05-14T09:18:51;102048.35;;;22.61;25.88
77897;BME280;67092;64.282;21.056;2023-05-14T09:21:17;102047.87;;;23.07;25.63
77897;BME280;67092;64.282;21.056;2023-05-14T09:23:42;102045.19;;;22.74;25.98
77897;BME280;67092;64.282;21.056;2023-05-14T09:26:08;102041.29;;;22.36;26.16
77897;BME280;67092;64.282;21.056;2023-05-14T09:28:33;102041.79;;;22.93;25.82
77897;BME280;67092;64.282;21.056;2023-05-14T09:30:59;102039.26;;;22.80;25.96
77897;BME280;67092;64.282;21.056;2023-05-14T09:33:26;102037.61;;;23.04;25.22
77897;BME280;67092;64.282;21.056;2023-05-14T09:35:50;102035.07;;;23.29;25.43
77897;BME280;67092;64.282;21.056;2023-05-14T09:38:16;102037.10;;;22.89;25.57
77897;BME280;67092;64.282;21.056;2023-05-14T09:40:42;102036.77;;;22.84;25.58
77897;BME280;67092;64.282;21.056;2023-05-14T09:43:08;102029.49;;;22.87;25.55
77897;BME280;67092;64.282;21.056;2023-05-14T09:45:34;102027.07;;;22.65;25.72
77897;BME280;67092;64.282;21.056;2023-05-14T09:47:59;102027.35;;;22.74;25.68
77897;BME280;67092;64.282;21.056;2023-05-14T09:50:24;102020.59;;;22.58;25.81
77897;BME280;67092;64.282;21.056;2023-05-14T09:52:49;102017.23;;;22.50;25.91
77897;BME280;67092;64.282;21.056;2023-05-14T09:55:15;102016.77;;;22.25;26.18
77897;BME280;67092;64.282;21.056;2023-05-14T09:57:41;102017.69;;;22.43;25.98
77897;BME280;67092;64.282;21.056;2023-05-14T10:00:08;102015.30;;;22.84;25.31
77897;BME280;67092;64.282;21.056;2023-05-14T10:02:35;102012.75;;;22.56;25.59
77897;BME280;67092;64.282;21.056;2023-05-14T10:05:00;102008.68;;;23.24;25.19
77897;BME280;67092;64.282;21.056;2023-05-14T10:07:28;102008.33;;;23.03;25.29
77897;BME280;67092;64.282;21.056;2023-05-14T10:09:53;102009.78;;;23.26;25.38
77897;BME280;67092;64.282;21.056;2023-05-14T10:12:15;102006.55;;;22.73;25.42
77897;BME280;67092;64.282;21.056;2023-05-14T10:14:42;102003.37;;;22.82;25.56
77897;BME280;67092;64.282;21.056;2023-05-14T10:17:06;101997.20;;;22.99;25.57
77897;BME280;67092;64.282;21.056;2023-05-14T10:19:33;101994.91;;;22.58;25.75
77897;BME280;67092;64.282;21.056;2023-05-14T10:22:03;101989.28;;;22.77;25.79
77897;BME280;67092;64.282;21.056;2023-05-14T10:24:24;101987.53;;;22.49;25.87
77897;BME280;67092;64.282;21.056;2023-05-14T10:26:48;101986.52;;;23.07;25.53
77897;BME280;67092;64.282;21.056;2023-05-14T10:29:14;101983.73;;;22.72;25.85
77897;BME280;67092;64.282;21.056;2023-05-14T10:31:46;101980.61;;;22.95;25.43
77897;BME280;67092;64.282;21.056;2023-05-14T10:36:30;101978.85;;;22.55;25.55
77897;BME280;67092;64.282;21.056;2023-05-14T10:38:56;101974.31;;;22.78;25.53
77897;BME280;67092;64.282;21.056;2023-05-14T10:41:22;101977.66;;;22.92;25.16
77897;BME280;67092;64.282;21.056;2023-05-14T10:43:47;101969.03;;;23.18;25.14
77897;BME280;67092;64.282;21.056;2023-05-14T10:46:13;101964.39;;;23.40;24.93
77897;BME280;67092;64.282;21.056;2023-05-14T10:48:41;101965.58;;;22.99;25.29
77897;BME280;67092;64.282;21.056;2023-05-14T10:51:06;101959.59;;;22.70;25.78
77897;BME280;67092;64.282;21.056;2023-05-14T10:53:32;101959.59;;;23.15;25.31
77897;BME280;67092;64.282;21.056;2023-05-14T10:55:55;101956.67;;;22.18;25.81
77897;BME280;67092;64.282;21.056;2023-05-14T10:58:21;101959.85;;;22.46;25.75
77897;BME280;67092;64.282;21.056;2023-05-14T11:00:47;101961.03;;;22.78;25.27
77897;BME280;67092;64.282;21.056;2023-05-14T11:03:13;101953.45;;;22.30;25.71
77897;BME280;67092;64.282;21.056;2023-05-14T11:05:40;101950.56;;;22.55;25.63
77897;BME280;67092;64.282;21.056;2023-05-14T11:08:05;101954.04;;;22.88;25.31
77897;BME280;67092;64.282;21.056;2023-05-14T11:10:30;101949.94;;;23.12;25.31
77897;BME280;67092;64.282;21.056;2023-05-14T11:12:55;101951.79;;;23.08;25.37
77897;BME280;67092;64.282;21.056;2023-05-14T11:15:22;101948.63;;;23.29;25.15
77897;BME280;67092;64.282;21.056;2023-05-14T11:17:47;101944.30;;;22.44;25.67
77897;BME280;67092;64.282;21.056;2023-05-14T11:20:12;101946.86;;;22.87;25.26
77897;BME280;67092;64.282;21.056;2023-05-14T11:22:38;101948.41;;;22.23;25.67
77897;BME280;67092;64.282;21.056;2023-05-14T11:25:03;101951.17;;;23.00;25.42
77897;BME280;67092;64.282;21.056;2023-05-14T11:27:29;101943.74;;;22.30;25.79
77897;BME280;67092;64.282;21.056;2023-05-14T11:29:54;101946.11;;;23.07;25.30
77897;BME280;67092;64.282;21.056;2023-05-14T11:32:20;101942.19;;;22.75;25.13
77897;BME280;67092;64.282;21.056;2023-05-14T11:34:46;101940.78;;;22.85;25.27
77897;BME280;67092;64.282;21.056;2023-05-14T11:37:12;101937.91;;;22.94;25.19
77897;BME280;67092;64.282;21.056;2023-05-14T11:39:37;101930.97;;;23.01;25.29
77897;BME280;67092;64.282;21.056;2023-05-14T11:42:03;101933.18;;;22.47;25.35
77897;BME280;67092;64.282;21.056;2023-05-14T11:44:28;101935.10;;;22.89;24.99
77897;BME280;67092;64.282;21.056;2023-05-14T11:46:54;101932.25;;;23.10;24.94
77897;BME280;67092;64.282;21.056;2023-05-14T11:49:20;101938.38;;;23.23;24.89
77897;BME280;67092;64.282;21.056;2023-05-14T11:51:45;101935.24;;;23.23;24.86
77897;BME280;67092;64.282;21.056;2023-05-14T11:54:13;101928.79;;;22.80;25.23
77897;BME280;67092;64.282;21.056;2023-05-14T11:56:36;101932.98;;;23.35;24.68
77897;BME280;67092;64.282;21.056;2023-05-14T11:59:01;101928.77;;;23.10;25.00
77897;BME280;67092;64.282;21.056;2023-05-14T12:01:27;101929.62;;;22.38;25.40
77897;BME280;67092;64.282;21.056;2023-05-14T12:03:53;101928.43;;;22.48;25.30
77897;BME280;67092;64.282;21.056;2023-05-14T12:06:18;101928.23;;;23.07;24.71
77897;BME280;67092;64.282;21.056;2023-05-14T12:08:46;101931.03;;;23.26;24.78
77897;BME280;67092;64.282;21.056;2023-05-14T12:11:09;101929.10;;;23.05;24.93
77897;BME280;67092;64.282;21.056;2023-05-14T12:13:35;101928.01;;;23.19;24.82
77897;BME280;67092;64.282;21.056;2023-05-14T12:16:01;101920.65;;;22.76;24.96
77897;BME280;67092;64.282;21.056;2023-05-14T12:18:28;101924.60;;;22.86;24.87
77897;BME280;67092;64.282;21.056;2023-05-14T12:20:52;101921.66;;;23.11;24.86
77897;BME280;67092;64.282;21.056;2023-05-14T12:23:24;101922.43;;;22.79;24.95
77897;BME280;67092;64.282;21.056;2023-05-14T12:25:49;101924.94;;;22.97;24.82
77897;BME280;67092;64.282;21.056;2023-05-14T12:28:14;101914.94;;;23.20;24.66
77897;BME280;67092;64.282;21.056;2023-05-14T12:30:36;101914.11;;;24.13;24.01
77897;BME280;67092;64.282;21.056;2023-05-14T12:33:00;101918.35;;;23.37;24.32